sensor_id;sensor_type;location;lat;lon;timestamp;temperature;humidity
25918;DHT22;13899;51.174;4.456;2023-03-24T00:00:07;13.10;99.90
25918;DHT22;13899;51.174;4.456;2023-03-24T00:02:38;13.10;99.90
25918;DHT22;13899;51.174;4.456;2023-03-24T00:05:09;13.10;99.90
25918;DHT22;13899;51.174;4.456;2023-03-24T00:07:36;13.20;99.90
25918;DHT22;13899;51.174;4.456;2023-03-24T00:10:07;13.10;99.90
25918;DHT22;13899;51.174;4.456;2023-03-24T00:12:35;13.10;99.90
25918;DHT22;13899;51.174;4.456;2023-03-24T00:15:05;13.10;99.90
25918;DHT22;13899;51.174;4.456;2023-03-24T00:17:31;13.10;99.90
25918;DHT22;13899;51.174;4.456;2023-03-24T00:20:01;13.00;99.90
25918;DHT22;13899;51.174;4.456;2023-03-24T00:22:32;12.90;99.90
25918;DHT22;13899;51.174;4.456;2023-03-24T00:24:57;12.90;99.90
25918;DHT22;13899;51.174;4.456;2023-03-24T00:27:23;13.00;99.90
25918;DHT22;13899;51.174;4.456;2023-03-24T00:29:49;12.90;99.90
25918;DHT22;13899;51.174;4.456;2023-03-24T00:32:14;12.90;99.90
25918;DHT22;13899;51.174;4.456;2023-03-24T00:34:41;12.90;99.90
25918;DHT22;13899;51.174;4.456;2023-03-24T00:37:07;12.90;99.90
25918;DHT22;13899;51.174;4.456;2023-03-24T00:39:34;12.80;99.90
25918;DHT22;13899;51.174;4.456;2023-03-24T00:42:00;12.80;99.90
25918;DHT22;13899;51.174;4.456;2023-03-24T00:44:28;12.70;99.90
25918;DHT22;13899;51.174;4.456;2023-03-24T00:46:53;12.80;99.90
25918;DHT22;13899;51.174;4.456;2023-03-24T00:49:27;12.80;99.90
25918;DHT22;13899;51.174;4.456;2023-03-24T00:52:17;12.80;99.90
25918;DHT22;13899;51.174;4.456;2023-03-24T00:54:46;12.80;99.90
25918;DHT22;13899;51.174;4.456;2023-03-24T00:57:13;12.90;99.90
25918;DHT22;13899;51.174;4.456;2023-03-24T00:59:47;12.90;99.90
25918;DHT22;13899;51.174;4.456;2023-03-24T01:02:25;13.00;99.90
25918;DHT22;13899;51.174;4.456;2023-03-24T01:04:59;12.90;99.90
25918;DHT22;13899;51.174;4.456;2023-03-24T01:07:27;12.90;99.90
25918;DHT22;13899;51.174;4.456;2023-03-24T01:09:55;12.90;99.90
25918;DHT22;13899;51.174;4.456;2023-03-24T01:12:31;12.90;99.90
25918;DHT22;13899;51.174;4.456;2023-03-24T01:15:05;13.00;99.90
25918;DHT22;13899;51.174;4.456;2023-03-24T01:17:31;13.10;99.90
25918;DHT22;13899;51.174;4.456;2023-03-24T01:19:57;13.10;99.90
25918;DHT22;13899;51.174;4.456;2023-03-24T01:22:28;13.20;99.90
25918;DHT22;13899;51.174;4.456;2023-03-24T01:24:54;13.20;99.90
25918;DHT22;13899;51.174;4.456;2023-03-24T01:27:20;13.10;99.90
25918;DHT22;13899;51.174;4.456;2023-03-24T01:29:46;13.00;99.90
25918;DHT22;13899;51.174;4.456;2023-03-24T01:32:12;12.90;99.90
25918;DHT22;13899;51.174;4.456;2023-03-24T01:34:38;12.90;99.90
25918;DHT22;13899;51.174;4.456;2023-03-24T01:37:04;12.90;99.90
25918;DHT22;13899;51.174;4.456;2023-03-24T01:39:30;12.90;99.90
25918;DHT22;13899;51.174;4.456;2023-03-24T01:41:55;12.90;99.90
25918;DHT22;13899;51.174;4.456;2023-03-24T01:46:54;12.90;99.90
25918;DHT22;13899;51.174;4.456;2023-03-24T01:49:21;12.90;99.90
25918;DHT22;13899;51.174;4.456;2023-03-24T01:51:53;12.90;99.90
25918;DHT22;13899;51.174;4.456;2023-03-24T01:54:36;12.90;99.90
25918;DHT22;13899;51.174;4.456;2023-03-24T01:57:07;12.90;99.90
25918;DHT22;13899;51.174;4.456;2023-03-24T01:59:36;12.90;99.90
25918;DHT22;13899;51.174;4.456;2023-03-24T02:02:05;12.90;99.90
25918;DHT22;13899;51.174;4.456;2023-03-24T02:04:37;12.90;99.90
25918;DHT22;13899;51.174;4.456;2023-03-24T02:07:16;12.80;99.90
25918;DHT22;13899;51.174;4.456;2023-03-24T02:09:43;12.70;99.90
25918;DHT22;13899;51.174;4.456;2023-03-24T02:12:09;12.70;99.90
25918;DHT22;13899;51.174;4.456;2023-03-24T02:14:35;12.70;99.90
25918;DHT22;13899;51.174;4.456;2023-03-24T02:17:32;12.70;99.90
25918;DHT22;13899;51.174;4.456;2023-03-24T02:26:24;12.40;99.90
25918;DHT22;13899;51.174;4.456;2023-03-24T02:37:54;12.00;99.90
25918;DHT22;13899;51.174;4.456;2023-03-24T02:48:33;11.80;99.90
25918;DHT22;13899;51.174;4.456;2023-03-24T02:51:16;11.70;99.90
25918;DHT22;13899;51.174;4.456;2023-03-24T02:54:00;11.70;99.90
25918;DHT22;13899;51.174;4.456;2023-03-24T03:01:47;11.50;99.90
25918;DHT22;13899;51.174;4.456;2023-03-24T03:04:29;11.40;99.90
25918;DHT22;13899;51.174;4.456;2023-03-24T03:07:01;11.40;99.90
25918;DHT22;13899;51.174;4.456;2023-03-24T03:09:32;11.50;99.90
25918;DHT22;13899;51.174;4.456;2023-03-24T03:11:59;11.50;99.90
25918;DHT22;13899;51.174;4.456;2023-03-24T03:14:34;11.30;99.90
25918;DHT22;13899;51.174;4.456;2023-03-24T03:17:25;11.40;99.90
25918;DHT22;13899;51.174;4.456;2023-03-24T03:20:14;11.40;99.90
25918;DHT22;13899;51.174;4.456;2023-03-24T03:23:09;11.40;99.90
25918;DHT22;13899;51.174;4.456;2023-03-24T03:25:43;11.60;99.90
25918;DHT22;13899;51.174;4.456;2023-03-24T03:28:13;11.60;99.90
25918;DHT22;13899;51.174;4.456;2023-03-24T03:31:05;11.30;99.90
25918;DHT22;13899;51.174;4.456;2023-03-24T03:33:39;11.20;99.90
25918;DHT22;13899;51.174;4.456;2023-03-24T03:36:14;11.30;99.90
25918;DHT22;13899;51.174;4.456;2023-03-24T03:38:55;11.30;99.90
25918;DHT22;13899;51.174;4.456;2023-03-24T03:41:23;11.30;99.90
25918;DHT22;13899;51.174;4.456;2023-03-24T03:43:49;11.30;99.90
25918;DHT22;13899;51.174;4.456;2023-03-24T03:46:16;11.20;99.90
25918;DHT22;13899;51.174;4.456;2023-03-24T03:48:42;11.30;99.90
25918;DHT22;13899;51.174;4.456;2023-03-24T03:51:09;11.50;99.90
25918;DHT22;13899;51.174;4.456;2023-03-24T03:56:09;11.40;99.90
25918;DHT22;13899;51.174;4.456;2023-03-24T03:58:35;11.30;99.90
25918;DHT22;13899;51.174;4.456;2023-03-24T04:01:02;11.30;99.90
25918;DHT22;13899;51.174;4.456;2023-03-24T04:03:39;11.30;99.90
25918;DHT22;13899;51.174;4.456;2023-03-24T04:08:56;11.40;99.90
25918;DHT22;13899;51.174;4.456;2023-03-24T04:20:05;11.20;99.90
25918;DHT22;13899;51.174;4.456;2023-03-24T04:36:43;11.20;99.90
25918;DHT22;13899;51.174;4.456;2023-03-24T04:39:16;11.10;99.90
25918;DHT22;13899;51.174;4.456;2023-03-24T04:41:44;11.10;99.90
25918;DHT22;13899;51.174;4.456;2023-03-24T04:44:12;11.00;99.90
25918;DHT22;13899;51.174;4.456;2023-03-24T04:46:42;10.90;99.90
25918;DHT22;13899;51.174;4.456;2023-03-24T04:49:08;11.00;99.90
25918;DHT22;13899;51.174;4.456;2023-03-24T04:51:33;10.90;99.90
25918;DHT22;13899;51.174;4.456;2023-03-24T04:53:59;11.00;99.90
25918;DHT22;13899;51.174;4.456;2023-03-24T04:56:40;11.10;99.90
25918;DHT22;13899;51.174;4.456;2023-03-24T04:59:08;11.00;99.90
25918;DHT22;13899;51.174;4.456;2023-03-24T05:01:34;11.10;99.90
25918;DHT22;13899;51.174;4.456;2023-03-24T05:04:02;11.10;99.90
25918;DHT22;13899;51.174;4.456;2023-03-24T05:06:28;11.00;99.90
25918;DHT22;13899;51.174;4.456;2023-03-24T05:08:55;11.00;99.90
25918;DHT22;13899;51.174;4.456;2023-03-24T05:11:26;11.00;99.90
25918;DHT22;13899;51.174;4.456;2023-03-24T05:13:52;10.80;99.90
25918;DHT22;13899;51.174;4.456;2023-03-24T05:16:18;10.80;99.90
25918;DHT22;13899;51.174;4.456;2023-03-24T05:18:44;10.70;99.90
25918;DHT22;13899;51.174;4.456;2023-03-24T05:21:11;10.70;99.90
25918;DHT22;13899;51.174;4.456;2023-03-24T05:23:37;10.60;99.90
25918;DHT22;13899;51.174;4.456;2023-03-24T05:26:03;10.50;99.90
25918;DHT22;13899;51.174;4.456;2023-03-24T05:28:29;10.50;99.90
25918;DHT22;13899;51.174;4.456;2023-03-24T05:30:54;10.50;99.90
25918;DHT22;13899;51.174;4.456;2023-03-24T05:33:20;10.50;99.90
25918;DHT22;13899;51.174;4.456;2023-03-24T05:35:46;10.30;99.90
25918;DHT22;13899;51.174;4.456;2023-03-24T05:38:12;10.60;99.90
25918;DHT22;13899;51.174;4.456;2023-03-24T05:40:37;10.30;99.90
25918;DHT22;13899;51.174;4.456;2023-03-24T05:43:03;10.40;99.90
25918;DHT22;13899;51.174;4.456;2023-03-24T05:45:28;10.40;99.90
25918;DHT22;13899;51.174;4.456;2023-03-24T05:47:55;10.40;99.90
25918;DHT22;13899;51.174;4.456;2023-03-24T05:50:21;10.40;99.90
25918;DHT22;13899;51.174;4.456;2023-03-24T05:52:48;10.50;99.90
25918;DHT22;13899;51.174;4.456;2023-03-24T05:55:15;10.50;99.90
25918;DHT22;13899;51.174;4.456;2023-03-24T05:57:41;10.60;99.90
25918;DHT22;13899;51.174;4.456;2023-03-24T06:00:07;10.50;99.90
25918;DHT22;13899;51.174;4.456;2023-03-24T06:02:35;10.50;99.90
25918;DHT22;13899;51.174;4.456;2023-03-24T06:05:01;10.50;99.90
25918;DHT22;13899;51.174;4.456;2023-03-24T06:07:28;10.50;99.90
25918;DHT22;13899;51.174;4.456;2023-03-24T06:09:58;10.40;99.90
25918;DHT22;13899;51.174;4.456;2023-03-24T06:12:28;10.40;99.90
25918;DHT22;13899;51.174;4.456;2023-03-24T06:14:54;10.40;99.90
25918;DHT22;13899;51.174;4.456;2023-03-24T06:17:20;10.50;99.90
25918;DHT22;13899;51.174;4.456;2023-03-24T06:19:46;10.40;99.90
25918;DHT22;13899;51.174;4.456;2023-03-24T06:22:18;10.40;99.90
25918;DHT22;13899;51.174;4.456;2023-03-24T06:24:44;10.30;99.90
25918;DHT22;13899;51.174;4.456;2023-03-24T06:27:11;10.30;99.90
25918;DHT22;13899;51.174;4.456;2023-03-24T06:29:39;10.40;99.90
25918;DHT22;13899;51.174;4.456;2023-03-24T06:32:08;10.40;99.90
25918;DHT22;13899;51.174;4.456;2023-03-24T06:34:34;10.50;99.90
25918;DHT22;13899;51.174;4.456;2023-03-24T06:36:59;10.50;99.90
25918;DHT22;13899;51.174;4.456;2023-03-24T06:39:25;10.30;99.90
25918;DHT22;13899;51.174;4.456;2023-03-24T06:41:51;10.50;99.90
25918;DHT22;13899;51.174;4.456;2023-03-24T06:44:17;10.60;99.90
25918;DHT22;13899;51.174;4.456;2023-03-24T06:46:42;10.70;99.90
25918;DHT22;13899;51.174;4.456;2023-03-24T06:49:10;10.70;99.90
25918;DHT22;13899;51.174;4.456;2023-03-24T06:51:36;10.90;99.90
25918;DHT22;13899;51.174;4.456;2023-03-24T06:54:01;10.90;99.90
25918;DHT22;13899;51.174;4.456;2023-03-24T06:56:27;10.80;99.90
25918;DHT22;13899;51.174;4.456;2023-03-24T06:58:54;10.80;99.90
25918;DHT22;13899;51.174;4.456;2023-03-24T07:01:20;10.80;99.90
25918;DHT22;13899;51.174;4.456;2023-03-24T07:03:47;10.90;99.90
25918;DHT22;13899;51.174;4.456;2023-03-24T07:06:13;10.90;99.90
25918;DHT22;13899;51.174;4.456;2023-03-24T07:08:38;11.00;99.90
25918;DHT22;13899;51.174;4.456;2023-03-24T07:11:06;11.30;99.90
25918;DHT22;13899;51.174;4.456;2023-03-24T07:13:33;11.20;99.90
25918;DHT22;13899;51.174;4.456;2023-03-24T07:15:59;11.20;99.90
25918;DHT22;13899;51.174;4.456;2023-03-24T07:18:24;11.20;99.90
25918;DHT22;13899;51.174;4.456;2023-03-24T07:20:50;11.10;99.90
25918;DHT22;13899;51.174;4.456;2023-03-24T07:23:16;11.20;99.90
25918;DHT22;13899;51.174;4.456;2023-03-24T07:25:42;11.30;99.90
25918;DHT22;13899;51.174;4.456;2023-03-24T07:28:09;11.40;99.90
25918;DHT22;13899;51.174;4.456;2023-03-24T07:30:35;11.30;99.90
25918;DHT22;13899;51.174;4.456;2023-03-24T07:33:06;11.50;99.90
25918;DHT22;13899;51.174;4.456;2023-03-24T07:35:32;11.50;99.90
25918;DHT22;13899;51.174;4.456;2023-03-24T07:38:01;11.30;99.90
25918;DHT22;13899;51.174;4.456;2023-03-24T07:40:27;11.50;99.90
25918;DHT22;13899;51.174;4.456;2023-03-24T07:42:54;11.50;99.90
25918;DHT22;13899;51.174;4.456;2023-03-24T07:45:20;11.50;99.90
25918;DHT22;13899;51.174;4.456;2023-03-24T07:47:46;11.50;99.90
25918;DHT22;13899;51.174;4.456;2023-03-24T07:50:12;11.40;99.90
25918;DHT22;13899;51.174;4.456;2023-03-24T07:52:40;11.40;99.90
25918;DHT22;13899;51.174;4.456;2023-03-24T07:55:07;11.40;99.90
25918;DHT22;13899;51.174;4.456;2023-03-24T07:57:34;11.50;99.90
25918;DHT22;13899;51.174;4.456;2023-03-24T08:00:03;11.50;99.90
25918;DHT22;13899;51.174;4.456;2023-03-24T08:02:55;11.50;99.90
25918;DHT22;13899;51.174;4.456;2023-03-24T08:05:22;11.50;99.90
25918;DHT22;13899;51.174;4.456;2023-03-24T08:07:51;11.50;99.90
25918;DHT22;13899;51.174;4.456;2023-03-24T08:10:29;11.40;99.90
25918;DHT22;13899;51.174;4.456;2023-03-24T08:12:56;11.50;99.90
25918;DHT22;13899;51.174;4.456;2023-03-24T08:15:22;11.40;99.90
25918;DHT22;13899;51.174;4.456;2023-03-24T08:17:49;11.50;99.90
25918;DHT22;13899;51.174;4.456;2023-03-24T08:20:16;11.40;99.90
25918;DHT22;13899;51.174;4.456;2023-03-24T08:22:46;11.60;99.90
25918;DHT22;13899;51.174;4.456;2023-03-24T08:25:15;11.70;99.90
25918;DHT22;13899;51.174;4.456;2023-03-24T08:27:41;11.60;99.90
25918;DHT22;13899;51.174;4.456;2023-03-24T08:30:10;11.70;99.90
25918;DHT22;13899;51.174;4.456;2023-03-24T08:32:43;11.80;99.90
25918;DHT22;13899;51.174;4.456;2023-03-24T08:35:10;11.80;99.90
25918;DHT22;13899;51.174;4.456;2023-03-24T08:37:39;12.20;99.90
25918;DHT22;13899;51.174;4.456;2023-03-24T08:40:08;12.20;99.90
25918;DHT22;13899;51.174;4.456;2023-03-24T08:42:39;12.30;99.90
25918;DHT22;13899;51.174;4.456;2023-03-24T08:45:07;12.50;99.90
25918;DHT22;13899;51.174;4.456;2023-03-24T08:47:35;12.60;99.90
25918;DHT22;13899;51.174;4.456;2023-03-24T08:50:02;12.40;99.90
25918;DHT22;13899;51.174;4.456;2023-03-24T08:52:27;12.30;99.90
25918;DHT22;13899;51.174;4.456;2023-03-24T08:54:53;12.30;99.90
25918;DHT22;13899;51.174;4.456;2023-03-24T08:57:18;12.50;99.90
25918;DHT22;13899;51.174;4.456;2023-03-24T08:59:44;12.40;99.90
25918;DHT22;13899;51.174;4.456;2023-03-24T09:02:13;12.20;99.90
25918;DHT22;13899;51.174;4.456;2023-03-24T09:04:39;12.30;99.90
25918;DHT22;13899;51.174;4.456;2023-03-24T09:07:08;12.30;99.90
25918;DHT22;13899;51.174;4.456;2023-03-24T09:09:34;12.30;99.90
25918;DHT22;13899;51.174;4.456;2023-03-24T09:12:00;12.30;99.90
25918;DHT22;13899;51.174;4.456;2023-03-24T09:14:26;12.40;99.90
25918;DHT22;13899;51.174;4.456;2023-03-24T09:16:51;12.40;99.90
25918;DHT22;13899;51.174;4.456;2023-03-24T09:19:17;12.60;99.90
25918;DHT22;13899;51.174;4.456;2023-03-24T09:21:44;12.50;99.90
25918;DHT22;13899;51.174;4.456;2023-03-24T09:24:11;12.70;99.90
25918;DHT22;13899;51.174;4.456;2023-03-24T09:26:37;12.70;99.90
25918;DHT22;13899;51.174;4.456;2023-03-24T09:29:03;12.70;99.90
25918;DHT22;13899;51.174;4.456;2023-03-24T09:31:28;12.20;99.90
25918;DHT22;13899;51.174;4.456;2023-03-24T09:33:54;12.40;99.90
25918;DHT22;13899;51.174;4.456;2023-03-24T09:36:20;12.40;99.90
25918;DHT22;13899;51.174;4.456;2023-03-24T09:38:46;12.60;99.90
25918;DHT22;13899;51.174;4.456;2023-03-24T09:41:31;13.00;99.90
25918;DHT22;13899;51.174;4.456;2023-03-24T09:46:59;13.20;99.90
25918;DHT22;13899;51.174;4.456;2023-03-24T09:49:32;13.10;99.90
25918;DHT22;13899;51.174;4.456;2023-03-24T09:52:08;12.90;99.90
25918;DHT22;13899;51.174;4.456;2023-03-24T09:54:43;13.00;99.90
25918;DHT22;13899;51.174;4.456;2023-03-24T09:57:27;13.30;99.90
25918;DHT22;13899;51.174;4.456;2023-03-24T09:59:54;13.20;99.90
25918;DHT22;13899;51.174;4.456;2023-03-24T10:02:21;13.60;99.90
25918;DHT22;13899;51.174;4.456;2023-03-24T10:04:47;14.00;99.90
25918;DHT22;13899;51.174;4.456;2023-03-24T10:07:36;14.30;99.90
25918;DHT22;13899;51.174;4.456;2023-03-24T10:13:06;14.20;99.90
25918;DHT22;13899;51.174;4.456;2023-03-24T10:15:47;14.70;99.90
25918;DHT22;13899;51.174;4.456;2023-03-24T10:21:26;14.80;99.90
25918;DHT22;13899;51.174;4.456;2023-03-24T10:24:18;13.50;99.90
25918;DHT22;13899;51.174;4.456;2023-03-24T10:27:04;13.30;99.90
25918;DHT22;13899;51.174;4.456;2023-03-24T10:29:35;13.10;99.90
25918;DHT22;13899;51.174;4.456;2023-03-24T10:32:11;12.90;99.90
25918;DHT22;13899;51.174;4.456;2023-03-24T10:34:40;13.00;99.90
25918;DHT22;13899;51.174;4.456;2023-03-24T10:37:09;13.10;99.90
25918;DHT22;13899;51.174;4.456;2023-03-24T10:39:35;12.90;99.90
25918;DHT22;13899;51.174;4.456;2023-03-24T10:42:03;12.80;99.90
25918;DHT22;13899;51.174;4.456;2023-03-24T10:44:34;12.90;99.90
25918;DHT22;13899;51.174;4.456;2023-03-24T10:47:02;13.00;99.90
25918;DHT22;13899;51.174;4.456;2023-03-24T10:49:29;12.90;99.90
25918;DHT22;13899;51.174;4.456;2023-03-24T10:52:00;12.90;99.90
25918;DHT22;13899;51.174;4.456;2023-03-24T10:54:29;12.90;99.90
25918;DHT22;13899;51.174;4.456;2023-03-24T10:59:37;11.60;99.90
25918;DHT22;13899;51.174;4.456;2023-03-24T11:02:14;11.10;99.90
25918;DHT22;13899;51.174;4.456;2023-03-24T11:04:43;10.80;99.90
25918;DHT22;13899;51.174;4.456;2023-03-24T11:07:17;10.70;99.90
25918;DHT22;13899;51.174;4.456;2023-03-24T11:10:01;10.80;99.90
25918;DHT22;13899;51.174;4.456;2023-03-24T11:12:32;10.90;99.90
25918;DHT22;13899;51.174;4.456;2023-03-24T11:15:28;11.10;99.90
25918;DHT22;13899;51.174;4.456;2023-03-24T11:18:15;12.30;99.90
25918;DHT22;13899;51.174;4.456;2023-03-24T11:20:56;12.30;99.90
25918;DHT22;13899;51.174;4.456;2023-03-24T11:23:27;11.80;99.90
25918;DHT22;13899;51.174;4.456;2023-03-24T11:26:17;11.70;99.90
25918;DHT22;13899;51.174;4.456;2023-03-24T11:28:54;11.50;99.90
25918;DHT22;13899;51.174;4.456;2023-03-24T11:31:48;11.10;99.90
25918;DHT22;13899;51.174;4.456;2023-03-24T11:34:22;11.30;99.90
25918;DHT22;13899;51.174;4.456;2023-03-24T11:36:58;11.10;99.90
25918;DHT22;13899;51.174;4.456;2023-03-24T11:39:27;10.60;99.90
25918;DHT22;13899;51.174;4.456;2023-03-24T11:47:26;10.30;99.90
25918;DHT22;13899;51.174;4.456;2023-03-24T11:50:17;10.30;99.90
25918;DHT22;13899;51.174;4.456;2023-03-24T11:55:43;13.00;99.90
25918;DHT22;13899;51.174;4.456;2023-03-24T11:58:35;14.50;99.90
25918;DHT22;13899;51.174;4.456;2023-03-24T12:04:18;13.60;99.90
25918;DHT22;13899;51.174;4.456;2023-03-24T12:07:06;13.70;99.90
25918;DHT22;13899;51.174;4.456;2023-03-24T12:09:50;12.90;99.90
25918;DHT22;13899;51.174;4.456;2023-03-24T12:26:14;14.40;99.90
25918;DHT22;13899;51.174;4.456;2023-03-24T12:39:30;15.70;99.90
25918;DHT22;13899;51.174;4.456;2023-03-24T12:42:10;16.40;99.90
25918;DHT22;13899;51.174;4.456;2023-03-24T12:47:33;15.70;99.90
25918;DHT22;13899;51.174;4.456;2023-03-24T12:58:19;16.80;99.90
25918;DHT22;13899;51.174;4.456;2023-03-24T13:03:32;16.10;99.90
25918;DHT22;13899;51.174;4.456;2023-03-24T13:06:42;16.30;99.90
25918;DHT22;13899;51.174;4.456;2023-03-24T13:09:30;15.10;99.90
25918;DHT22;13899;51.174;4.456;2023-03-24T13:12:22;14.60;99.90
25918;DHT22;13899;51.174;4.456;2023-03-24T13:20:12;15.50;99.90
25918;DHT22;13899;51.174;4.456;2023-03-24T13:22:39;15.60;99.90
25918;DHT22;13899;51.174;4.456;2023-03-24T13:25:18;15.70;99.90
25918;DHT22;13899;51.174;4.456;2023-03-24T13:27:49;16.00;99.90
25918;DHT22;13899;51.174;4.456;2023-03-24T13:30:29;16.70;99.90
25918;DHT22;13899;51.174;4.456;2023-03-24T13:33:10;16.40;99.90
25918;DHT22;13899;51.174;4.456;2023-03-24T13:41:21;14.20;99.90
25918;DHT22;13899;51.174;4.456;2023-03-24T13:44:06;14.20;99.90
25918;DHT22;13899;51.174;4.456;2023-03-24T13:46:39;14.00;99.90
25918;DHT22;13899;51.174;4.456;2023-03-24T13:49:10;14.70;99.90
25918;DHT22;13899;51.174;4.456;2023-03-24T13:51:42;15.60;99.90
25918;DHT22;13899;51.174;4.456;2023-03-24T13:54:19;16.90;99.90
25918;DHT22;13899;51.174;4.456;2023-03-24T13:57:05;17.30;99.90
25918;DHT22;13899;51.174;4.456;2023-03-24T13:59:41;16.70;99.90
25918;DHT22;13899;51.174;4.456;2023-03-24T14:15:39;15.80;99.90
25918;DHT22;13899;51.174;4.456;2023-03-24T14:21:08;15.70;99.90
25918;DHT22;13899;51.174;4.456;2023-03-24T14:23:36;14.60;99.90
25918;DHT22;13899;51.174;4.456;2023-03-24T14:29:01;14.30;99.90
25918;DHT22;13899;51.174;4.456;2023-03-24T14:31:32;14.20;99.90
25918;DHT22;13899;51.174;4.456;2023-03-24T14:36:40;14.70;99.90
25918;DHT22;13899;51.174;4.456;2023-03-24T14:41:56;14.50;99.90
25918;DHT22;13899;51.174;4.456;2023-03-24T14:44:55;14.00;99.90
25918;DHT22;13899;51.174;4.456;2023-03-24T14:49:49;13.80;99.90
25918;DHT22;13899;51.174;4.456;2023-03-24T14:52:31;13.90;99.90
25918;DHT22;13899;51.174;4.456;2023-03-24T14:55:06;13.90;99.90
25918;DHT22;13899;51.174;4.456;2023-03-24T14:57:42;15.10;99.90
25918;DHT22;13899;51.174;4.456;2023-03-24T15:03:00;15.70;99.90
25918;DHT22;13899;51.174;4.456;2023-03-24T15:08:11;17.40;99.90
25918;DHT22;13899;51.174;4.456;2023-03-24T15:10:45;18.80;99.90
25918;DHT22;13899;51.174;4.456;2023-03-24T15:16:28;16.20;99.90
25918;DHT22;13899;51.174;4.456;2023-03-24T15:18:56;16.70;99.90
25918;DHT22;13899;51.174;4.456;2023-03-24T15:21:26;15.80;99.90
25918;DHT22;13899;51.174;4.456;2023-03-24T15:23:53;15.10;99.90
25918;DHT22;13899;51.174;4.456;2023-03-24T15:26:20;15.00;99.90
25918;DHT22;13899;51.174;4.456;2023-03-24T15:29:05;15.10;99.90
25918;DHT22;13899;51.174;4.456;2023-03-24T15:31:31;15.80;99.90
25918;DHT22;13899;51.174;4.456;2023-03-24T15:34:07;16.00;99.90
25918;DHT22;13899;51.174;4.456;2023-03-24T15:36:55;15.90;99.90
25918;DHT22;13899;51.174;4.456;2023-03-24T15:39:38;15.10;99.90
25918;DHT22;13899;51.174;4.456;2023-03-24T15:42:14;14.80;99.90
25918;DHT22;13899;51.174;4.456;2023-03-24T15:44:42;15.80;99.90
25918;DHT22;13899;51.174;4.456;2023-03-24T15:47:23;16.40;99.90
25918;DHT22;13899;51.174;4.456;2023-03-24T15:49:57;15.90;99.90
25918;DHT22;13899;51.174;4.456;2023-03-24T15:52:29;16.10;99.90
25918;DHT22;13899;51.174;4.456;2023-03-24T15:55:07;16.10;99.90
25918;DHT22;13899;51.174;4.456;2023-03-24T15:57:46;15.80;99.90
25918;DHT22;13899;51.174;4.456;2023-03-24T16:00:17;15.90;99.90
25918;DHT22;13899;51.174;4.456;2023-03-24T16:02:50;16.10;99.90
25918;DHT22;13899;51.174;4.456;2023-03-24T16:05:31;15.90;99.90
25918;DHT22;13899;51.174;4.456;2023-03-24T16:08:21;16.00;99.90
25918;DHT22;13899;51.174;4.456;2023-03-24T16:11:01;16.00;99.90
25918;DHT22;13899;51.174;4.456;2023-03-24T16:13:32;15.20;99.90
25918;DHT22;13899;51.174;4.456;2023-03-24T16:18:36;16.00;99.90
25918;DHT22;13899;51.174;4.456;2023-03-24T16:21:10;15.90;99.90
25918;DHT22;13899;51.174;4.456;2023-03-24T16:23:36;15.30;99.90
25918;DHT22;13899;51.174;4.456;2023-03-24T16:26:02;15.10;99.90
25918;DHT22;13899;51.174;4.456;2023-03-24T16:28:28;14.90;99.90
25918;DHT22;13899;51.174;4.456;2023-03-24T16:33:46;14.50;99.90
25918;DHT22;13899;51.174;4.456;2023-03-24T16:36:12;14.50;99.90
25918;DHT22;13899;51.174;4.456;2023-03-24T16:38:38;14.40;99.90
25918;DHT22;13899;51.174;4.456;2023-03-24T16:41:04;14.40;99.90
25918;DHT22;13899;51.174;4.456;2023-03-24T16:43:29;14.30;99.90
25918;DHT22;13899;51.174;4.456;2023-03-24T16:45:57;14.10;99.90
25918;DHT22;13899;51.174;4.456;2023-03-24T16:48:23;14.00;99.90
25918;DHT22;13899;51.174;4.456;2023-03-24T16:50:50;13.90;99.90
25918;DHT22;13899;51.174;4.456;2023-03-24T16:53:16;13.90;99.90
25918;DHT22;13899;51.174;4.456;2023-03-24T16:55:42;13.80;99.90
25918;DHT22;13899;51.174;4.456;2023-03-24T16:58:10;13.70;99.90
25918;DHT22;13899;51.174;4.456;2023-03-24T17:00:37;13.50;99.90
25918;DHT22;13899;51.174;4.456;2023-03-24T17:03:04;13.10;99.90
25918;DHT22;13899;51.174;4.456;2023-03-24T17:05:43;13.00;99.90
25918;DHT22;13899;51.174;4.456;2023-03-24T17:08:11;13.00;99.90
25918;DHT22;13899;51.174;4.456;2023-03-24T17:10:38;13.10;99.90
25918;DHT22;13899;51.174;4.456;2023-03-24T17:13:05;13.00;99.90
25918;DHT22;13899;51.174;4.456;2023-03-24T17:15:31;13.00;99.90
25918;DHT22;13899;51.174;4.456;2023-03-24T17:17:57;13.00;99.90
25918;DHT22;13899;51.174;4.456;2023-03-24T17:20:24;13.00;99.90
25918;DHT22;13899;51.174;4.456;2023-03-24T17:22:53;12.80;99.90
25918;DHT22;13899;51.174;4.456;2023-03-24T17:25:20;12.70;99.90
25918;DHT22;13899;51.174;4.456;2023-03-24T17:27:49;12.70;99.90
25918;DHT22;13899;51.174;4.456;2023-03-24T17:30:18;12.70;99.90
25918;DHT22;13899;51.174;4.456;2023-03-24T17:32:45;12.70;99.90
25918;DHT22;13899;51.174;4.456;2023-03-24T17:35:16;12.50;99.90
25918;DHT22;13899;51.174;4.456;2023-03-24T17:37:42;12.20;99.90
25918;DHT22;13899;51.174;4.456;2023-03-24T17:40:12;12.00;99.90
25918;DHT22;13899;51.174;4.456;2023-03-24T17:42:40;12.10;99.90
25918;DHT22;13899;51.174;4.456;2023-03-24T17:45:07;12.00;99.90
25918;DHT22;13899;51.174;4.456;2023-03-24T17:47:34;12.10;99.90
25918;DHT22;13899;51.174;4.456;2023-03-24T17:49:59;12.10;99.90
25918;DHT22;13899;51.174;4.456;2023-03-24T17:52:25;12.10;99.90
25918;DHT22;13899;51.174;4.456;2023-03-24T17:54:51;12.10;99.90
25918;DHT22;13899;51.174;4.456;2023-03-24T17:57:16;12.10;99.90
25918;DHT22;13899;51.174;4.456;2023-03-24T17:59:42;12.00;99.90
25918;DHT22;13899;51.174;4.456;2023-03-24T18:02:11;12.00;99.90
25918;DHT22;13899;51.174;4.456;2023-03-24T18:04:37;11.90;99.90
25918;DHT22;13899;51.174;4.456;2023-03-24T18:07:03;11.80;99.90
25918;DHT22;13899;51.174;4.456;2023-03-24T18:09:32;11.70;99.90
25918;DHT22;13899;51.174;4.456;2023-03-24T18:11:57;11.60;99.90
25918;DHT22;13899;51.174;4.456;2023-03-24T18:14:23;11.60;99.90
25918;DHT22;13899;51.174;4.456;2023-03-24T18:16:49;11.50;99.90
25918;DHT22;13899;51.174;4.456;2023-03-24T18:19:15;11.40;99.90
25918;DHT22;13899;51.174;4.456;2023-03-24T18:21:41;11.40;99.90
25918;DHT22;13899;51.174;4.456;2023-03-24T18:24:07;11.30;99.90
25918;DHT22;13899;51.174;4.456;2023-03-24T18:26:33;11.20;99.90
25918;DHT22;13899;51.174;4.456;2023-03-24T18:28:59;11.20;99.90
25918;DHT22;13899;51.174;4.456;2023-03-24T18:31:25;11.10;99.90
25918;DHT22;13899;51.174;4.456;2023-03-24T18:33:51;11.10;99.90
25918;DHT22;13899;51.174;4.456;2023-03-24T18:36:19;11.00;99.90
25918;DHT22;13899;51.174;4.456;2023-03-24T18:38:46;11.10;99.90
25918;DHT22;13899;51.174;4.456;2023-03-24T18:41:13;11.20;99.90
25918;DHT22;13899;51.174;4.456;2023-03-24T18:43:41;11.10;99.90